createdAt,value
2023-01-31T00:00:54.474Z,34.40
2023-01-31T00:01:54.466Z,32.80
2023-01-31T00:02:54.453Z,28.90
2023-01-31T00:03:54.515Z,37.00
2023-01-31T00:04:54.409Z,32.70
2023-01-31T00:05:54.400Z,29.10
2023-01-31T00:06:54.380Z,31.30
2023-01-31T00:07:54.369Z,34.40
2023-01-31T00:08:54.365Z,34.90
2023-01-31T00:09:54.339Z,25.80
2023-01-31T00:10:54.331Z,29.50
2023-01-31T00:11:54.328Z,35.20
2023-01-31T00:12:54.316Z,30.10
2023-01-31T00:13:54.335Z,32.50
2023-01-31T00:14:54.266Z,40.00
2023-01-31T00:15:54.298Z,32.00
2023-01-31T00:16:54.270Z,31.70
2023-01-31T00:17:54.250Z,38.80
2023-01-31T00:18:54.209Z,28.00
2023-01-31T00:19:54.211Z,29.90
2023-01-31T00:20:54.201Z,37.80
2023-01-31T00:21:54.166Z,37.60
2023-01-31T00:22:54.187Z,30.00
2023-01-31T00:23:54.135Z,42.50
2023-01-31T00:24:54.127Z,29.80
2023-01-31T00:25:54.158Z,38.40
2023-01-31T00:26:54.198Z,24.90
2023-01-31T00:27:54.088Z,38.40
2023-01-31T00:28:54.083Z,33.60
2023-01-31T00:29:54.069Z,31.30
2023-01-31T00:30:54.111Z,33.10
2023-01-31T00:31:54.087Z,37.60
2023-01-31T00:32:54.039Z,29.00
2023-01-31T00:33:54.005Z,32.40
2023-01-31T00:34:54.011Z,34.70
2023-01-31T00:35:53.997Z,29.60
2023-01-31T00:36:53.979Z,35.40
2023-01-31T00:37:53.957Z,43.20
2023-01-31T00:38:53.951Z,35.90
2023-01-31T00:39:53.943Z,28.10
2023-01-31T00:40:53.928Z,36.70
2023-01-31T00:41:53.898Z,35.30
2023-01-31T00:42:53.896Z,37.50
2023-01-31T00:43:53.889Z,33.00
2023-01-31T00:44:53.859Z,40.40
2023-01-31T00:45:53.879Z,26.60
2023-01-31T00:46:53.868Z,32.30
2023-01-31T00:47:53.838Z,31.10
2023-01-31T00:48:53.823Z,29.50
2023-01-31T00:49:53.788Z,33.80
2023-01-31T00:50:53.795Z,37.80
2023-01-31T00:51:53.772Z,36.60
2023-01-31T00:52:53.748Z,30.80
2023-01-31T00:53:53.799Z,35.60
2023-01-31T00:54:53.728Z,39.40
2023-01-31T00:55:53.737Z,37.70
2023-01-31T00:56:53.718Z,30.40
2023-01-31T00:57:53.691Z,27.60
2023-01-31T00:58:53.690Z,37.80
2023-01-31T00:59:53.647Z,31.10
2023-01-31T01:00:53.731Z,33.60
2023-01-31T01:01:53.651Z,34.50
2023-01-31T01:02:53.639Z,37.90
2023-01-31T01:03:53.622Z,37.70
2023-01-31T01:04:53.588Z,37.50
2023-01-31T01:05:53.572Z,31.10
2023-01-31T01:06:53.580Z,31.60
2023-01-31T01:07:53.550Z,35.80
2023-01-31T01:08:53.543Z,37.70
2023-01-31T01:09:53.518Z,31.50
2023-01-31T01:10:53.508Z,38.40
2023-01-31T01:11:53.528Z,42.20
2023-01-31T01:12:53.496Z,42.90
2023-01-31T01:13:53.479Z,30.80
2023-01-31T01:14:53.473Z,38.30
2023-01-31T01:15:53.455Z,31.30
2023-01-31T01:16:53.454Z,32.30
2023-01-31T01:17:53.435Z,38.00
2023-01-31T01:18:53.429Z,34.80
2023-01-31T01:19:53.399Z,33.80
2023-01-31T01:20:53.399Z,38.30
2023-01-31T01:21:53.384Z,38.40
2023-01-31T01:22:53.366Z,31.30
2023-01-31T01:23:53.357Z,33.50
2023-01-31T01:24:53.335Z,41.00
2023-01-31T01:25:53.322Z,35.10
2023-01-31T01:26:53.407Z,33.00
2023-01-31T01:27:53.286Z,39.50
2023-01-31T01:28:53.293Z,30.30
2023-01-31T01:29:53.253Z,29.60
2023-01-31T01:30:53.281Z,42.90
2023-01-31T01:31:53.334Z,29.90
2023-01-31T01:32:53.223Z,38.20
2023-01-31T01:33:53.215Z,31.60
2023-01-31T01:34:53.212Z,32.20
2023-01-31T01:35:53.181Z,34.70
2023-01-31T01:36:53.191Z,36.70
2023-01-31T01:37:53.156Z,31.20
2023-01-31T01:38:53.155Z,31.70
2023-01-31T01:39:53.139Z,37.80
2023-01-31T01:40:53.123Z,31.50
2023-01-31T01:41:53.112Z,27.80
2023-01-31T01:42:53.099Z,30.70
2023-01-31T01:43:53.074Z,37.60
2023-01-31T01:44:53.075Z,33.60
2023-01-31T01:45:53.086Z,34.30
2023-01-31T01:46:53.090Z,33.60
2023-01-31T01:47:53.030Z,39.50
2023-01-31T01:48:53.017Z,35.30
2023-01-31T01:49:52.991Z,43.60
2023-01-31T01:50:52.989Z,30.90
2023-01-31T01:51:52.992Z,35.70
2023-01-31T01:52:52.968Z,34.80
2023-01-31T01:53:52.943Z,37.20
2023-01-31T01:54:52.940Z,34.10
2023-01-31T01:55:52.914Z,37.20
2023-01-31T01:56:52.935Z,30.70
2023-01-31T01:57:52.894Z,35.90
2023-01-31T01:58:52.871Z,32.80
2023-01-31T01:59:52.876Z,36.80
2023-01-31T02:00:52.895Z,34.60
2023-01-31T02:01:52.983Z,32.80
2023-01-31T02:02:52.831Z,36.50
2023-01-31T02:03:52.807Z,30.40
2023-01-31T02:04:52.794Z,32.60
2023-01-31T02:05:52.776Z,35.50
2023-01-31T02:06:52.793Z,35.60
2023-01-31T02:07:52.763Z,32.50
2023-01-31T02:08:52.747Z,38.80
2023-01-31T02:09:52.731Z,32.90
2023-01-31T02:10:52.752Z,33.70
2023-01-31T02:11:52.716Z,30.50
2023-01-31T02:12:52.694Z,31.20
2023-01-31T02:13:52.674Z,33.70
2023-01-31T02:14:52.663Z,31.30
2023-01-31T02:15:52.644Z,40.00
2023-01-31T02:16:52.677Z,33.10
2023-01-31T02:17:52.615Z,28.30
2023-01-31T02:18:52.635Z,37.90
2023-01-31T02:19:52.587Z,31.40
2023-01-31T02:20:52.609Z,32.80
2023-01-31T02:21:52.605Z,34.70
2023-01-31T02:22:52.557Z,37.80
2023-01-31T02:23:52.532Z,35.10
2023-01-31T02:24:52.526Z,38.40
2023-01-31T02:25:52.521Z,32.40
2023-01-31T02:26:52.493Z,33.40
2023-01-31T02:27:52.493Z,34.30
2023-01-31T02:28:52.509Z,32.10
2023-01-31T02:29:52.463Z,37.80
2023-01-31T02:30:52.514Z,37.70
2023-01-31T02:31:52.436Z,39.00
2023-01-31T02:32:52.444Z,32.20
2023-01-31T02:33:52.408Z,33.50
2023-01-31T02:34:52.424Z,43.80
2023-01-31T02:35:52.379Z,35.80
2023-01-31T02:36:52.363Z,25.30
2023-01-31T02:37:52.368Z,35.10
2023-01-31T02:38:52.353Z,34.70
2023-01-31T02:39:52.324Z,39.30
2023-01-31T02:40:52.342Z,38.30
2023-01-31T02:41:52.298Z,34.30
2023-01-31T02:42:52.303Z,29.50
2023-01-31T02:43:52.285Z,44.30
2023-01-31T02:44:52.263Z,35.00
2023-01-31T02:45:52.289Z,33.60
2023-01-31T02:46:52.235Z,36.80
2023-01-31T02:47:52.224Z,36.30
2023-01-31T02:48:52.212Z,35.60
2023-01-31T02:49:52.214Z,33.50
2023-01-31T02:50:52.181Z,42.00
2023-01-31T02:51:52.186Z,36.10
2023-01-31T02:52:52.164Z,36.60
2023-01-31T02:53:52.203Z,33.20
2023-01-31T02:54:52.133Z,32.00
2023-01-31T02:55:52.115Z,35.80
2023-01-31T02:56:52.094Z,32.80
2023-01-31T02:57:52.089Z,34.40
2023-01-31T02:58:52.085Z,29.20
2023-01-31T02:59:52.053Z,39.50
2023-01-31T03:00:52.072Z,38.40
2023-01-31T03:01:52.045Z,37.10
2023-01-31T03:04:01.843Z,38.40
2023-01-31T03:05:01.801Z,35.90
2023-01-31T03:06:01.793Z,40.10
2023-01-31T03:07:01.865Z,36.40
2023-01-31T03:08:01.785Z,36.80
2023-01-31T03:09:01.746Z,40.10
2023-01-31T03:10:01.744Z,36.50
2023-01-31T03:11:01.721Z,33.80
2023-01-31T03:12:01.717Z,34.50
2023-01-31T03:13:01.730Z,36.20
2023-01-31T03:14:01.690Z,38.30
2023-01-31T03:15:01.688Z,33.60
2023-01-31T03:16:01.684Z,41.00
2023-01-31T03:17:01.716Z,30.10
2023-01-31T03:18:01.675Z,37.00
2023-01-31T03:19:01.618Z,32.90
2023-01-31T03:20:01.619Z,36.80
2023-01-31T03:21:01.591Z,36.50
2023-01-31T03:22:01.580Z,39.80
2023-01-31T03:23:01.609Z,31.30
2023-01-31T03:24:01.586Z,31.40
2023-01-31T03:25:01.568Z,39.60
2023-01-31T03:26:01.523Z,36.20
2023-01-31T03:27:01.507Z,34.60
2023-01-31T03:28:01.501Z,32.20
2023-01-31T03:29:01.567Z,36.80
2023-01-31T03:30:01.482Z,33.20
2023-01-31T03:31:01.511Z,39.70
2023-01-31T03:32:01.496Z,34.20
2023-01-31T03:33:01.437Z,34.00
2023-01-31T03:34:01.463Z,32.90
2023-01-31T03:35:01.403Z,34.30
2023-01-31T03:36:01.392Z,37.00
2023-01-31T03:37:01.375Z,41.60
2023-01-31T03:38:01.370Z,40.40
2023-01-31T03:39:01.376Z,30.80
2023-01-31T03:40:01.329Z,35.70
2023-01-31T03:41:01.327Z,36.30
2023-01-31T03:42:01.314Z,39.70
2023-01-31T03:43:01.304Z,35.10
2023-01-31T03:44:01.299Z,36.50
2023-01-31T03:45:01.338Z,35.10
2023-01-31T03:46:01.252Z,44.10
2023-01-31T03:47:01.242Z,41.00
2023-01-31T03:48:01.245Z,32.30
2023-01-31T03:49:01.242Z,41.80
2023-01-31T03:50:01.210Z,33.60
2023-01-31T03:51:01.205Z,37.00
2023-01-31T03:52:01.194Z,35.20
2023-01-31T03:53:01.168Z,37.90
2023-01-31T03:54:01.172Z,37.90
2023-01-31T03:55:01.135Z,34.90
2023-01-31T03:56:01.139Z,45.90
2023-01-31T03:57:01.105Z,44.20
2023-01-31T03:58:01.107Z,34.60
2023-01-31T03:59:01.100Z,34.70
2023-01-31T04:00:01.093Z,28.60
2023-01-31T04:01:01.059Z,40.40
2023-01-31T04:02:01.055Z,44.90
2023-01-31T04:03:01.080Z,38.50
2023-01-31T04:04:01.026Z,39.00
2023-01-31T04:05:00.997Z,38.70
2023-01-31T04:06:01.004Z,43.80
2023-01-31T04:07:01.006Z,34.50
2023-01-31T04:08:00.952Z,42.90
2023-01-31T04:09:00.964Z,34.80
2023-01-31T04:10:00.932Z,42.60
2023-01-31T04:11:00.921Z,39.00
2023-01-31T04:12:00.915Z,38.50
2023-01-31T04:13:00.882Z,41.70
2023-01-31T04:14:00.898Z,41.70
2023-01-31T04:15:00.858Z,45.00
2023-01-31T04:16:00.956Z,38.60
2023-01-31T04:17:00.859Z,44.20
2023-01-31T04:18:00.831Z,38.20
2023-01-31T04:19:00.826Z,43.10
2023-01-31T04:20:00.802Z,42.10
2023-01-31T04:21:00.785Z,42.00
2023-01-31T04:22:00.784Z,47.30
2023-01-31T04:23:00.754Z,38.90
2023-01-31T04:24:00.776Z,36.90
2023-01-31T04:25:00.726Z,42.80
2023-01-31T04:26:00.726Z,41.70
2023-01-31T04:27:00.713Z,41.60
2023-01-31T04:28:00.718Z,42.80
2023-01-31T04:29:00.697Z,40.30
2023-01-31T04:30:00.696Z,37.80
2023-01-31T04:31:00.714Z,44.30
2023-01-31T04:32:00.812Z,37.80
2023-01-31T04:33:00.628Z,40.40
2023-01-31T04:34:00.629Z,39.20
2023-01-31T04:35:02.353Z,50.90
2023-01-31T04:36:00.579Z,51.60
2023-01-31T04:37:00.576Z,44.00
2023-01-31T04:38:00.546Z,40.10
2023-01-31T04:39:00.547Z,41.40
2023-01-31T04:40:00.543Z,48.00
2023-01-31T04:41:00.524Z,45.30
2023-01-31T04:42:00.501Z,40.00
2023-01-31T04:43:00.506Z,42.90
2023-01-31T04:44:00.571Z,41.20
2023-01-31T04:45:00.452Z,35.20
2023-01-31T04:46:00.442Z,49.40
2023-01-31T04:47:00.469Z,40.90
2023-01-31T04:48:00.435Z,40.50
2023-01-31T04:49:00.415Z,48.00
2023-01-31T04:50:00.405Z,43.40
2023-01-31T04:51:00.385Z,44.80
2023-01-31T04:52:00.382Z,50.40
2023-01-31T04:53:00.369Z,42.70
2023-01-31T04:54:00.324Z,41.10
2023-01-31T04:55:00.334Z,47.60
2023-01-31T04:56:00.324Z,37.10
2023-01-31T04:57:00.284Z,44.30
2023-01-31T04:58:00.287Z,53.10
2023-01-31T04:59:00.256Z,44.30
2023-01-31T05:00:00.279Z,42.70
2023-01-31T05:01:00.325Z,47.90
2023-01-31T05:02:00.248Z,50.70
2023-01-31T05:03:00.311Z,44.20
2023-01-31T05:04:00.213Z,46.70
2023-01-31T05:05:00.190Z,44.10
2023-01-31T05:06:00.185Z,42.10
2023-01-31T05:07:00.159Z,38.90
2023-01-31T05:08:00.145Z,53.90
2023-01-31T05:09:00.128Z,49.80
2023-01-31T05:10:00.146Z,48.00
2023-01-31T05:11:02.295Z,42.20
2023-01-31T05:12:00.128Z,51.10
2023-01-31T05:13:00.084Z,42.00
2023-01-31T05:14:00.102Z,46.40
2023-01-31T05:15:00.062Z,49.80
2023-01-31T05:16:00.100Z,45.00
2023-01-31T05:17:00.029Z,55.60
2023-01-31T05:18:00.008Z,52.60
2023-01-31T05:19:00.009Z,56.50
2023-01-31T05:19:59.995Z,55.90
2023-01-31T05:20:59.965Z,52.30
2023-01-31T05:21:59.988Z,55.80
2023-01-31T05:22:59.946Z,47.40
2023-01-31T05:23:59.924Z,57.20
2023-01-31T05:24:59.927Z,53.60
2023-01-31T05:25:59.914Z,56.90
2023-01-31T05:26:59.895Z,46.10
2023-01-31T05:27:59.875Z,53.20
2023-01-31T05:28:59.860Z,53.80
2023-01-31T05:29:59.864Z,49.90
2023-01-31T05:30:59.852Z,51.90
2023-01-31T05:31:59.952Z,55.30
2023-01-31T05:32:59.816Z,53.40
2023-01-31T05:33:59.818Z,50.00
2023-01-31T05:34:59.788Z,52.20
2023-01-31T05:35:59.766Z,51.00
2023-01-31T05:36:59.775Z,55.90
2023-01-31T05:37:59.735Z,53.10
2023-01-31T05:38:59.724Z,47.50
2023-01-31T05:39:59.736Z,52.80
2023-01-31T05:40:59.707Z,51.60
2023-01-31T05:41:59.725Z,52.70
2023-01-31T05:42:59.677Z,48.60
2023-01-31T05:43:59.654Z,48.10
2023-01-31T05:44:59.679Z,44.40
2023-01-31T05:45:59.747Z,47.60
2023-01-31T05:46:59.617Z,58.80
2023-01-31T05:47:59.618Z,58.10
2023-01-31T05:48:59.595Z,53.80
2023-01-31T05:49:59.587Z,50.00
2023-01-31T05:50:59.587Z,50.40
2023-01-31T05:51:59.547Z,53.30
2023-01-31T05:52:59.557Z,57.30
2023-01-31T05:53:59.519Z,47.90
2023-01-31T05:54:59.525Z,50.60
2023-01-31T05:55:59.526Z,52.70
2023-01-31T05:56:59.499Z,52.90
2023-01-31T05:58:00.016Z,46.30
2023-01-31T05:59:00.070Z,49.70
2023-01-31T05:59:59.728Z,59.60
2023-01-31T06:00:59.862Z,52.60
2023-01-31T06:01:59.910Z,47.50
2023-01-31T06:02:59.891Z,54.30
2023-01-31T06:03:59.563Z,52.30
2023-01-31T06:04:59.425Z,54.00
2023-01-31T06:05:59.377Z,57.00
2023-01-31T06:06:59.358Z,47.10
2023-01-31T06:07:59.328Z,45.60
2023-01-31T06:08:59.325Z,51.70
2023-01-31T06:09:59.331Z,47.60
2023-01-31T06:10:59.981Z,52.50
2023-01-31T06:11:59.857Z,51.00
2023-01-31T06:12:59.869Z,46.40
2023-01-31T06:13:59.533Z,52.20
2023-01-31T06:14:59.477Z,51.20
2023-01-31T06:15:59.416Z,54.80
2023-01-31T06:16:59.238Z,49.50
2023-01-31T06:17:59.220Z,48.20
2023-01-31T06:18:59.188Z,50.70
2023-01-31T06:19:59.247Z,54.20
2023-01-31T06:20:59.189Z,48.40
2023-01-31T06:21:59.167Z,51.10
2023-01-31T06:22:59.128Z,45.70
2023-01-31T06:23:59.709Z,52.90
2023-01-31T06:24:59.501Z,51.80
2023-01-31T06:25:59.516Z,51.00
2023-01-31T06:26:59.302Z,51.80
2023-01-31T06:27:59.377Z,46.00
2023-01-31T06:28:59.092Z,46.70
2023-01-31T06:29:59.307Z,47.20
2023-01-31T06:30:59.167Z,52.50
2023-01-31T06:31:59.008Z,45.50
2023-01-31T06:32:59.009Z,44.00
2023-01-31T06:33:58.991Z,49.70
2023-01-31T06:34:58.975Z,45.10
2023-01-31T06:35:59.495Z,50.40
2023-01-31T06:36:58.955Z,40.60
2023-01-31T06:37:59.041Z,46.00
2023-01-31T06:38:58.921Z,44.20
2023-01-31T06:39:58.901Z,42.80
2023-01-31T06:40:58.909Z,46.10
2023-01-31T06:41:58.880Z,41.70
2023-01-31T06:42:58.886Z,46.90
2023-01-31T06:43:58.857Z,39.40
2023-01-31T06:44:58.842Z,45.30
2023-01-31T06:45:58.877Z,46.10
2023-01-31T06:46:58.813Z,40.30
2023-01-31T06:47:58.820Z,42.20
2023-01-31T06:48:58.789Z,42.40
2023-01-31T06:49:58.781Z,41.40
2023-01-31T06:50:58.788Z,41.70
2023-01-31T06:51:58.743Z,41.40
2023-01-31T06:52:58.767Z,47.30
2023-01-31T06:53:58.723Z,44.70
2023-01-31T06:54:58.750Z,36.90
2023-01-31T06:55:58.711Z,43.60
2023-01-31T06:56:58.710Z,48.30
2023-01-31T06:57:58.663Z,41.20
2023-01-31T06:58:58.673Z,42.80
2023-01-31T06:59:58.651Z,43.70
2023-01-31T07:00:58.641Z,42.30
2023-01-31T07:01:58.634Z,39.50
2023-01-31T07:02:58.599Z,43.20
2023-01-31T07:03:58.591Z,43.90
2023-01-31T07:04:58.610Z,45.60
2023-01-31T07:05:58.565Z,39.40
2023-01-31T07:06:58.557Z,45.50
2023-01-31T07:07:58.520Z,45.90
2023-01-31T07:08:58.519Z,40.60
2023-01-31T07:09:58.502Z,45.30
2023-01-31T07:10:58.499Z,35.90
2023-01-31T07:11:58.474Z,35.60
2023-01-31T07:12:58.472Z,43.00
2023-01-31T07:13:58.456Z,41.90
2023-01-31T07:14:58.456Z,45.40
2023-01-31T07:15:58.557Z,40.10
2023-01-31T07:16:58.410Z,35.80
2023-01-31T07:17:58.390Z,42.20
2023-01-31T07:18:58.386Z,43.10
2023-01-31T07:19:58.386Z,34.80
2023-01-31T07:20:58.382Z,37.30
2023-01-31T07:21:58.338Z,36.20
2023-01-31T07:22:58.334Z,34.20
2023-01-31T07:23:58.308Z,43.80
2023-01-31T07:24:58.313Z,33.60
2023-01-31T07:25:58.311Z,34.50
2023-01-31T07:26:58.275Z,38.90
2023-01-31T07:27:58.252Z,32.50
2023-01-31T07:28:58.253Z,33.90
2023-01-31T07:29:58.255Z,33.60
2023-01-31T07:30:58.291Z,29.60
2023-01-31T07:31:58.335Z,38.60
2023-01-31T07:32:58.191Z,27.40
2023-01-31T07:33:58.175Z,26.60
2023-01-31T07:34:58.184Z,37.50
2023-01-31T07:35:58.168Z,31.10
2023-01-31T07:36:58.162Z,35.20
2023-01-31T07:37:58.124Z,34.50
2023-01-31T07:38:58.111Z,31.90
2023-01-31T07:39:58.111Z,32.40
2023-01-31T07:40:58.125Z,27.30
2023-01-31T07:41:58.075Z,34.40
2023-01-31T07:42:58.067Z,29.20
2023-01-31T07:43:58.063Z,27.10
2023-01-31T07:44:58.056Z,31.30
2023-01-31T07:45:58.061Z,28.90
2023-01-31T07:46:58.002Z,29.40
2023-01-31T07:47:58.009Z,29.80
2023-01-31T07:48:57.978Z,28.50
2023-01-31T07:49:57.972Z,23.50
2023-01-31T07:50:57.981Z,28.20
2023-01-31T07:51:57.943Z,28.80
2023-01-31T07:52:57.941Z,28.90
2023-01-31T07:53:57.910Z,32.30
2023-01-31T07:54:57.900Z,29.70
2023-01-31T07:55:57.913Z,28.70
2023-01-31T07:56:57.876Z,23.50
2023-01-31T07:57:57.873Z,28.20
2023-01-31T07:58:57.851Z,27.70
2023-01-31T07:59:57.830Z,27.20
2023-01-31T08:00:57.869Z,29.10
2023-01-31T08:01:57.821Z,27.60
2023-01-31T08:02:57.796Z,30.60
2023-01-31T08:03:58.126Z,30.70
2023-01-31T08:04:57.801Z,23.70
2023-01-31T08:05:57.783Z,25.90
2023-01-31T08:06:57.754Z,32.60
2023-01-31T08:07:57.722Z,29.50
2023-01-31T08:08:57.723Z,26.40
2023-01-31T08:09:57.692Z,23.70
2023-01-31T08:10:57.704Z,25.10
2023-01-31T08:11:57.664Z,29.30
2023-01-31T08:12:57.666Z,29.00
2023-01-31T08:13:57.644Z,28.30
2023-01-31T08:14:57.632Z,32.90
2023-01-31T08:15:57.615Z,29.10
2023-01-31T08:16:57.626Z,27.90
2023-01-31T08:17:57.593Z,23.00
2023-01-31T08:18:57.573Z,28.30
2023-01-31T08:19:57.565Z,24.70
2023-01-31T08:20:57.555Z,26.80
2023-01-31T08:21:57.561Z,20.20
2023-01-31T08:22:57.526Z,26.60
2023-01-31T08:23:57.515Z,26.30
2023-01-31T08:24:57.512Z,25.50
2023-01-31T08:25:57.475Z,28.80
2023-01-31T08:26:57.488Z,24.60
2023-01-31T08:27:57.463Z,22.10
2023-01-31T08:28:57.469Z,25.40
2023-01-31T08:29:57.423Z,29.40
2023-01-31T08:31:08.243Z,21.50
2023-01-31T08:31:58.525Z,21.60
2023-01-31T08:32:57.400Z,28.30
2023-01-31T08:33:57.368Z,28.60
2023-01-31T08:34:57.363Z,20.70
2023-01-31T08:35:57.348Z,28.40
2023-01-31T08:36:57.403Z,22.50
2023-01-31T08:38:10.388Z,26.80
2023-01-31T08:38:58.363Z,27.10
2023-01-31T08:39:57.297Z,22.80
2023-01-31T08:40:57.288Z,26.00
2023-01-31T08:41:57.272Z,23.40
2023-01-31T08:42:57.270Z,28.20
2023-01-31T08:43:58.790Z,20.50
2023-01-31T08:44:57.271Z,27.40
2023-01-31T08:45:57.211Z,38.90
2023-01-31T08:46:57.300Z,24.00
2023-01-31T08:47:57.188Z,28.80
2023-01-31T08:48:57.204Z,24.10
2023-01-31T08:49:57.158Z,25.60
2023-01-31T08:50:57.144Z,27.20
2023-01-31T08:51:57.145Z,25.60
2023-01-31T08:52:57.124Z,22.70
2023-01-31T08:53:57.107Z,25.50
2023-01-31T08:54:57.098Z,21.50
2023-01-31T08:55:57.086Z,27.50
2023-01-31T08:56:57.084Z,33.10
2023-01-31T08:58:00.052Z,29.30
2023-01-31T08:58:57.052Z,29.50
2023-01-31T08:59:57.036Z,29.70
2023-01-31T09:00:57.041Z,38.60
2023-01-31T09:01:57.048Z,32.20
2023-01-31T09:02:57.028Z,33.70
2023-01-31T09:03:57.399Z,29.60
2023-01-31T09:04:56.967Z,28.30
2023-01-31T09:05:56.946Z,31.70
2023-01-31T09:06:56.993Z,27.80
2023-01-31T09:07:56.926Z,32.20
2023-01-31T09:08:56.919Z,36.10
2023-01-31T09:09:56.914Z,28.60
2023-01-31T09:10:56.885Z,32.60
2023-01-31T09:11:56.893Z,31.50
2023-01-31T09:12:56.884Z,33.90
2023-01-31T09:13:56.851Z,33.50
2023-01-31T09:14:56.828Z,33.30
2023-01-31T09:15:56.820Z,30.60
2023-01-31T09:16:56.830Z,30.70
2023-01-31T09:17:56.777Z,28.50
2023-01-31T09:18:56.775Z,27.70
2023-01-31T09:19:56.760Z,35.40
2023-01-31T09:20:56.748Z,28.60
2023-01-31T09:21:56.746Z,38.30
2023-01-31T09:22:56.730Z,31.40
2023-01-31T09:23:56.734Z,30.60
2023-01-31T09:24:56.688Z,30.90
2023-01-31T09:25:56.674Z,25.00
2023-01-31T09:26:56.744Z,33.80
2023-01-31T09:27:56.682Z,31.20
2023-01-31T09:28:56.636Z,26.60
2023-01-31T09:29:56.634Z,22.60
2023-01-31T09:30:56.649Z,22.30
2023-01-31T09:31:56.713Z,26.20
2023-01-31T09:32:56.586Z,30.10
2023-01-31T09:33:56.597Z,23.40
2023-01-31T09:34:56.556Z,29.20
2023-01-31T09:35:56.537Z,24.80
2023-01-31T09:36:56.558Z,35.50
2023-01-31T09:37:56.510Z,26.00
2023-01-31T09:38:56.669Z,26.60
2023-01-31T09:39:56.494Z,28.10
2023-01-31T09:40:56.478Z,29.10
2023-01-31T09:41:56.467Z,22.70
2023-01-31T09:42:56.522Z,27.10
2023-01-31T09:43:56.440Z,18.30
2023-01-31T09:44:56.440Z,24.90
2023-01-31T09:45:56.417Z,25.70
2023-01-31T09:46:56.459Z,29.90
2023-01-31T09:47:56.398Z,30.60
2023-01-31T09:48:56.363Z,25.20
2023-01-31T09:49:56.358Z,23.70
2023-01-31T09:50:56.330Z,29.20
2023-01-31T09:51:56.329Z,25.00
2023-01-31T09:52:56.326Z,23.70
2023-01-31T09:53:56.317Z,25.50
2023-01-31T09:54:56.280Z,27.60
2023-01-31T09:55:56.279Z,17.90
2023-01-31T09:56:56.247Z,21.00
2023-01-31T09:57:56.266Z,23.20
2023-01-31T09:58:56.228Z,22.70
2023-01-31T09:59:56.233Z,27.00
2023-01-31T10:00:56.241Z,18.00
2023-01-31T10:01:58.158Z,22.40
2023-01-31T10:02:56.197Z,21.10
2023-01-31T10:03:56.246Z,19.00
2023-01-31T10:04:56.149Z,20.40
2023-01-31T10:05:56.162Z,24.50
2023-01-31T10:06:56.133Z,19.90
2023-01-31T10:07:56.129Z,18.70
2023-01-31T10:08:56.101Z,23.40
2023-01-31T10:09:56.093Z,25.90
2023-01-31T10:10:56.070Z,22.30
2023-01-31T10:11:56.068Z,22.40
2023-01-31T10:12:56.048Z,27.90
2023-01-31T10:13:56.032Z,27.40
2023-01-31T10:14:56.017Z,21.80
2023-01-31T10:15:56.000Z,28.20
2023-01-31T10:16:55.999Z,26.60
2023-01-31T10:17:56.069Z,19.90
2023-01-31T10:18:55.961Z,24.60
2023-01-31T10:19:55.963Z,23.00
2023-01-31T10:20:55.967Z,26.30
2023-01-31T10:21:55.927Z,22.80
2023-01-31T10:22:55.929Z,25.10
2023-01-31T10:23:55.923Z,28.20
2023-01-31T10:24:55.879Z,22.50
2023-01-31T10:25:55.894Z,22.40
2023-01-31T10:26:55.918Z,23.50
2023-01-31T10:27:55.862Z,24.10
2023-01-31T10:28:55.848Z,26.10
2023-01-31T10:29:55.823Z,28.00
2023-01-31T10:30:55.904Z,28.80
2023-01-31T10:31:55.848Z,24.70
2023-01-31T10:32:55.782Z,25.50
2023-01-31T10:33:55.763Z,22.60
2023-01-31T10:34:55.750Z,20.90
2023-01-31T10:35:55.732Z,25.30
2023-01-31T10:36:55.722Z,22.20
2023-01-31T10:37:55.743Z,23.60
2023-01-31T10:38:55.689Z,22.80
2023-01-31T10:39:55.682Z,29.30
2023-01-31T10:40:55.670Z,23.70
2023-01-31T10:41:55.653Z,23.10
2023-01-31T10:42:55.651Z,26.70
2023-01-31T10:43:55.630Z,16.70
2023-01-31T10:44:55.623Z,22.80
2023-01-31T10:45:55.632Z,29.00
2023-01-31T10:46:55.581Z,31.20
2023-01-31T10:47:55.592Z,22.80
2023-01-31T10:48:55.576Z,29.60
2023-01-31T10:49:55.553Z,26.10
2023-01-31T10:50:55.545Z,20.40
2023-01-31T10:51:55.524Z,25.20
2023-01-31T10:52:55.521Z,28.10
2023-01-31T10:53:55.520Z,30.40
2023-01-31T10:54:55.476Z,27.30
2023-01-31T10:55:55.493Z,26.70
2023-01-31T10:56:55.457Z,28.20
2023-01-31T10:57:55.495Z,24.00
2023-01-31T10:58:55.423Z,27.10
2023-01-31T10:59:55.429Z,24.30
2023-01-31T11:00:55.411Z,28.80
2023-01-31T11:01:55.425Z,27.40
2023-01-31T11:02:55.382Z,27.00
2023-01-31T11:03:55.394Z,23.70
2023-01-31T11:04:55.344Z,27.90
2023-01-31T11:05:55.333Z,22.80
2023-01-31T11:06:55.321Z,30.00
2023-01-31T11:07:55.347Z,25.00
2023-01-31T11:08:55.312Z,22.80
2023-01-31T11:09:55.285Z,24.70
2023-01-31T11:10:55.262Z,26.50
2023-01-31T11:11:55.252Z,27.10
2023-01-31T11:12:55.264Z,27.60
2023-01-31T11:13:55.245Z,20.70
2023-01-31T11:14:55.214Z,24.90
2023-01-31T11:15:55.215Z,27.30
2023-01-31T11:16:55.272Z,26.30
2023-01-31T11:17:55.346Z,23.90
2023-01-31T11:18:55.158Z,23.60
2023-01-31T11:19:55.162Z,25.10
2023-01-31T11:20:55.132Z,26.80
2023-01-31T11:21:55.113Z,30.10
2023-01-31T11:22:55.113Z,25.40
2023-01-31T11:23:55.094Z,18.90
2023-01-31T11:24:55.074Z,25.70
2023-01-31T11:25:55.084Z,27.30
2023-01-31T11:26:55.046Z,27.10
2023-01-31T11:27:55.050Z,25.60
2023-01-31T11:28:55.018Z,27.70
2023-01-31T11:29:55.025Z,27.00
2023-01-31T11:30:55.078Z,29.20
2023-01-31T11:31:55.067Z,23.90
2023-01-31T11:32:54.978Z,30.90
2023-01-31T11:33:54.960Z,28.70
2023-01-31T11:34:54.957Z,23.90
2023-01-31T11:35:54.929Z,25.80
2023-01-31T11:36:54.924Z,21.60
2023-01-31T11:37:54.915Z,26.10
2023-01-31T11:38:54.910Z,23.90
2023-01-31T11:39:54.877Z,22.80
2023-01-31T11:40:54.944Z,27.10
2023-01-31T11:41:54.852Z,22.80
2023-01-31T11:42:54.873Z,27.80
2023-01-31T11:43:54.837Z,18.00
2023-01-31T11:44:54.806Z,27.10
2023-01-31T11:45:54.858Z,21.80
2023-01-31T11:46:54.777Z,26.90
2023-01-31T11:47:54.786Z,21.10
2023-01-31T11:48:54.747Z,25.00
2023-01-31T11:49:54.736Z,29.10
2023-01-31T11:50:54.727Z,18.80
2023-01-31T11:51:54.717Z,23.60
2023-01-31T11:52:54.717Z,17.80
2023-01-31T11:53:54.696Z,19.10
2023-01-31T11:54:54.681Z,21.00
2023-01-31T11:55:54.697Z,21.40
2023-01-31T11:56:55.781Z,21.30
2023-01-31T11:57:54.664Z,26.60
2023-01-31T11:58:54.630Z,21.50
2023-01-31T11:59:54.608Z,18.10
2023-01-31T12:00:54.605Z,23.20
2023-01-31T12:01:54.623Z,24.70
2023-01-31T12:02:54.583Z,21.80
2023-01-31T12:04:02.542Z,20.90
2023-01-31T12:04:55.537Z,22.40
2023-01-31T12:05:54.525Z,18.90
2023-01-31T12:06:54.528Z,19.70
2023-01-31T12:07:54.523Z,19.20
2023-01-31T12:08:54.476Z,18.10
2023-01-31T12:09:54.479Z,20.80
2023-01-31T12:10:54.448Z,14.70
2023-01-31T12:11:54.448Z,23.90
2023-01-31T12:12:54.491Z,17.70
2023-01-31T12:13:54.462Z,20.10
2023-01-31T12:14:54.432Z,15.20
2023-01-31T12:15:54.421Z,24.40
2023-01-31T12:16:54.437Z,20.60
2023-01-31T12:17:54.391Z,32.60
2023-01-31T12:18:54.358Z,24.40
2023-01-31T12:19:54.381Z,19.10
2023-01-31T12:20:54.347Z,24.00
2023-01-31T12:21:54.313Z,17.40
2023-01-31T12:22:54.311Z,23.70
2023-01-31T12:23:54.289Z,25.00
2023-01-31T12:24:54.274Z,19.80
2023-01-31T12:25:54.287Z,26.50
2023-01-31T12:26:54.298Z,17.50
2023-01-31T12:27:54.261Z,16.60
2023-01-31T12:28:54.209Z,17.60
2023-01-31T12:29:54.231Z,23.70
2023-01-31T12:30:54.309Z,24.30
2023-01-31T12:31:54.185Z,21.00
2023-01-31T12:32:54.198Z,20.40
2023-01-31T12:33:54.161Z,19.60
2023-01-31T12:35:00.663Z,25.00
2023-01-31T12:35:55.127Z,22.30
2023-01-31T12:36:54.104Z,23.70
2023-01-31T12:37:54.126Z,23.50
2023-01-31T12:38:54.102Z,23.40
2023-01-31T12:39:54.070Z,24.50
2023-01-31T12:40:54.050Z,21.40
2023-01-31T12:41:54.059Z,27.40
2023-01-31T12:42:54.039Z,28.00
2023-01-31T12:43:54.013Z,19.50
2023-01-31T12:44:54.001Z,25.80
2023-01-31T12:45:54.024Z,22.40
2023-01-31T12:47:08.450Z,26.30
2023-01-31T12:47:54.978Z,27.80
2023-01-31T12:48:53.949Z,24.70
2023-01-31T12:49:53.933Z,24.70
2023-01-31T12:50:53.926Z,29.50
2023-01-31T12:51:53.918Z,20.20
2023-01-31T12:52:53.904Z,22.40
2023-01-31T12:53:53.927Z,23.70